Time;durP1;ratioP1;P1;durP2;ratioP2;P2;SDS_P1;SDS_P2;PMS_P1;PMS_P2;Temp;Humidity;BMP_temperature;BMP_pressure;BME280_temperature;BME280_humidity;BME280_pressure;Samples;Min_cycle;Max_cycle;Signal;HPM_P1;HPM_P2
2022/06/21 00:01:01;;;;;;;24.30;3.03;;;19.60;23.70;;;;;;4989048;28;20476;-69
2022/06/21 00:03:29;;;;;;;24.23;2.93;;;19.60;23.00;;;;;;4988987;28;20467;-69
2022/06/21 00:05:56;;;;;;;26.60;3.07;;;19.50;23.00;;;;;;4989722;28;20460;-69
2022/06/21 00:08:26;;;;;;;27.93;3.20;;;19.40;22.80;;;;;;4988389;28;20485;-71
2022/06/21 00:10:54;;;;;;;25.80;2.73;;;19.40;22.80;;;;;;4989990;28;20457;-71
2022/06/21 00:13:23;;;;;;;24.00;2.50;;;19.20;23.10;;;;;;4989516;28;20484;-69
2022/06/21 00:15:51;;;;;;;25.20;2.83;;;19.10;23.30;;;;;;4989737;28;20467;-69
2022/06/21 00:18:20;;;;;;;24.03;2.70;;;19.00;23.40;;;;;;4986932;28;20477;-71
2022/06/21 00:20:48;;;;;;;24.33;3.77;;;19.00;23.30;;;;;;4989576;28;20464;-70
2022/06/21 00:23:18;;;;;;;24.17;3.00;;;18.90;23.30;;;;;;4988858;28;20461;-69
2022/06/21 00:25:47;;;;;;;25.07;2.80;;;18.80;23.30;;;;;;4986132;28;20474;-70
2022/06/21 00:28:14;;;;;;;24.97;2.97;;;18.80;23.40;;;;;;4985780;28;20485;-70
2022/06/21 00:30:41;;;;;;;23.57;2.63;;;18.70;23.30;;;;;;4988717;28;20461;-71
2022/06/21 00:33:13;;;;;;;25.10;3.13;;;18.70;23.40;;;;;;4986329;28;20470;-70
2022/06/21 00:35:41;;;;;;;23.23;2.90;;;18.60;23.50;;;;;;4988908;28;20460;-70
2022/06/21 00:38:12;;;;;;;25.30;2.80;;;18.60;23.50;;;;;;4988199;28;20493;-70
2022/06/21 00:40:39;;;;;;;23.33;2.70;;;18.60;23.30;;;;;;4986575;28;20457;-71
2022/06/21 00:43:13;;;;;;;24.13;3.00;;;18.50;23.50;;;;;;4989027;28;20468;-69
2022/06/21 00:45:43;;;;;;;23.57;3.07;;;18.50;23.60;;;;;;4989181;28;20464;-70
2022/06/21 00:48:13;;;;;;;23.80;2.97;;;18.40;23.80;;;;;;4989371;28;20480;-69
2022/06/21 00:50:43;;;;;;;25.13;2.87;;;18.40;23.70;;;;;;4988306;28;20464;-70
2022/06/21 00:53:17;;;;;;;23.77;2.80;;;18.30;23.50;;;;;;4987794;28;20483;-69
2022/06/21 00:55:50;;;;;;;28.90;3.17;;;18.30;23.40;;;;;;4988963;28;20476;-69
2022/06/21 00:58:21;;;;;;;24.70;2.93;;;18.20;23.30;;;;;;4988767;28;21005;-70
2022/06/21 01:00:57;;;;;;;30.93;3.30;;;18.10;23.30;;;;;;4987369;28;20468;-71
2022/06/21 01:03:27;;;;;;;31.67;3.43;;;18.00;23.50;;;;;;4989000;28;20452;-70
2022/06/21 01:05:56;;;;;;;25.27;3.00;;;18.00;23.30;;;;;;4988736;28;20523;-69
2022/06/21 01:08:28;;;;;;;25.97;3.37;;;17.90;23.40;;;;;;4987162;28;20999;-70
2022/06/21 01:10:58;;;;;;;24.20;2.70;;;17.90;23.30;;;;;;4987324;28;20669;-70
2022/06/21 01:13:30;;;;;;;23.67;2.30;;;17.90;23.30;;;;;;4985689;28;20484;-70
2022/06/21 01:15:58;;;;;;;25.60;2.77;;;17.80;23.20;;;;;;4976245;28;20469;-70
2022/06/21 01:18:26;;;;;;;25.30;2.80;;;17.70;23.40;;;;;;4988208;28;20575;-70
2022/06/21 01:20:57;;;;;;;26.60;3.03;;;17.70;23.30;;;;;;4985463;28;20460;-71
2022/06/21 01:23:37;;;;;;;24.07;3.23;;;17.70;23.40;;;;;;4987596;28;20465;-69
2022/06/21 01:26:20;;;;;;;25.63;2.70;;;17.60;23.10;;;;;;4986237;28;20475;-70
2022/06/21 01:28:49;;;;;;;26.20;2.50;;;17.60;22.80;;;;;;4988405;28;20568;-71
2022/06/21 01:31:16;;;;;;;25.30;3.43;;;17.50;23.00;;;;;;4986438;28;20853;-71
2022/06/21 01:33:44;;;;;;;27.77;2.90;;;17.50;22.90;;;;;;4987813;28;20490;-70
2022/06/21 01:36:14;;;;;;;24.20;2.80;;;17.50;23.00;;;;;;4987474;28;20842;-70
2022/06/21 01:38:44;;;;;;;24.73;3.00;;;17.40;23.10;;;;;;4987767;28;20515;-69
2022/06/21 01:41:17;;;;;;;30.73;3.23;;;17.40;23.30;;;;;;4986490;28;20472;-70
2022/06/21 01:43:48;;;;;;;27.17;3.27;;;17.20;23.60;;;;;;4988644;28;20437;-70
2022/06/21 01:46:20;;;;;;;24.60;3.60;;;17.10;24.10;;;;;;4987415;28;20638;-70
2022/06/21 01:48:50;;;;;;;28.33;2.83;;;17.10;24.00;;;;;;4987992;28;20858;-70
2022/06/21 01:51:22;;;;;;;23.60;3.33;;;17.00;24.30;;;;;;4986751;28;20968;-69
2022/06/21 01:53:49;;;;;;;26.20;2.97;;;16.90;24.80;;;;;;4989326;28;20485;-69
2022/06/21 01:56:21;;;;;;;25.53;3.00;;;16.90;24.70;;;;;;4990885;28;20464;-70
2022/06/21 01:58:53;;;;;;;24.30;2.83;;;16.80;25.00;;;;;;4991486;28;20489;-69
2022/06/21 02:01:27;;;;;;;25.70;3.20;;;16.70;25.50;;;;;;4989078;28;20480;-68
2022/06/21 02:03:57;;;;;;;22.10;2.60;;;16.60;26.20;;;;;;4991056;28;20543;-70
2022/06/21 02:06:28;;;;;;;22.70;3.17;;;16.40;26.70;;;;;;4990583;28;20464;-69
2022/06/21 02:08:59;;;;;;;22.73;2.70;;;16.30;27.10;;;;;;4990196;28;20502;-70
2022/06/21 02:11:29;;;;;;;24.10;3.53;;;16.10;27.90;;;;;;4991603;28;20536;-70
2022/06/21 02:16:53;;;;;;;22.33;2.70;;;15.90;28.30;;;;;;4975886;28;20448;-69
2022/06/21 02:19:27;;;;;;;22.57;2.90;;;15.80;28.50;;;;;;4991708;28;20847;-68
2022/06/21 02:21:54;;;;;;;19.63;3.07;;;15.70;28.80;;;;;;4990716;28;20486;-69
2022/06/21 02:24:23;;;;;;;21.20;2.67;;;15.70;28.70;;;;;;4991109;28;20465;-69
2022/06/21 02:26:51;;;;;;;20.93;2.93;;;15.80;28.70;;;;;;4990587;28;20514;-69
2022/06/21 02:29:18;;;;;;;21.80;3.07;;;15.70;28.50;;;;;;4990934;28;20961;-70
2022/06/21 02:31:46;;;;;;;21.33;2.60;;;15.70;28.30;;;;;;4989810;28;21153;-69
2022/06/21 02:34:21;;;;;;;25.63;3.00;;;15.80;28.10;;;;;;4988535;28;21049;-69
2022/06/21 02:36:52;;;;;;;27.67;3.20;;;15.90;28.00;;;;;;4989957;28;20451;-70
2022/06/21 02:39:22;;;;;;;27.57;3.70;;;16.00;27.70;;;;;;4990675;28;20449;-69
2022/06/21 02:41:53;;;;;;;27.33;2.60;;;16.00;27.50;;;;;;4990787;28;20465;-70
2022/06/21 02:44:24;;;;;;;26.13;3.00;;;16.00;27.60;;;;;;4989282;28;20488;-70
2022/06/21 02:46:54;;;;;;;24.03;2.90;;;16.10;27.80;;;;;;4990517;28;20923;-70
2022/06/21 02:49:27;;;;;;;27.83;2.60;;;16.10;27.50;;;;;;4990401;28;20460;-70
2022/06/21 02:51:59;;;;;;;23.97;3.00;;;16.10;27.40;;;;;;4990296;28;20471;-70
2022/06/21 02:54:56;;;;;;;25.97;3.13;;;16.20;27.10;;;;;;4988213;28;20489;-71
2022/06/21 02:57:28;;;;;;;23.90;3.03;;;16.20;27.20;;;;;;4989856;28;20485;-70
2022/06/21 02:59:56;;;;;;;24.97;3.10;;;16.20;26.90;;;;;;4990345;28;20449;-69
2022/06/21 03:02:27;;;;;;;28.87;3.10;;;16.20;26.70;;;;;;4989537;28;20473;-71
2022/06/21 03:04:59;;;;;;;24.90;2.60;;;16.10;26.20;;;;;;4989345;28;20818;-71
2022/06/21 03:07:29;;;;;;;26.90;3.40;;;16.20;26.40;;;;;;4989850;28;20491;-69
2022/06/21 03:09:57;;;;;;;25.63;3.00;;;16.20;26.20;;;;;;4990363;28;20980;-69
2022/06/21 03:12:27;;;;;;;23.80;3.03;;;16.20;25.70;;;;;;4988736;28;20843;-68
2022/06/21 03:14:58;;;;;;;23.60;3.20;;;16.20;26.20;;;;;;4989027;28;20851;-69
2022/06/21 03:17:31;;;;;;;23.40;3.17;;;16.10;27.20;;;;;;4988480;28;20997;-70
2022/06/21 03:20:00;;;;;;;24.37;2.73;;;16.00;27.10;;;;;;4989928;28;20957;-69
2022/06/21 03:22:32;;;;;;;23.70;3.07;;;15.90;27.70;;;;;;4989997;28;20568;-69
2022/06/21 03:25:00;;;;;;;22.87;2.83;;;15.90;27.70;;;;;;4989828;28;20608;-69
2022/06/21 03:27:32;;;;;;;24.87;2.70;;;15.90;27.70;;;;;;4988932;28;20671;-70
2022/06/21 03:30:00;;;;;;;23.50;2.80;;;15.80;27.80;;;;;;4989405;28;20467;-69
2022/06/21 03:32:30;;;;;;;22.87;2.80;;;15.90;27.60;;;;;;4988119;28;20472;-69
2022/06/21 03:34:57;;;;;;;21.50;2.83;;;15.80;28.00;;;;;;4989236;28;20909;-67
2022/06/21 03:37:25;;;;;;;22.00;2.83;;;15.70;28.50;;;;;;5075626;23;20840;-67
2022/06/21 03:42:44;;;;;;;24.53;3.07;;;15.70;28.70;;;;;;4987128;28;20504;-68
2022/06/21 03:45:17;;;;;;;26.47;3.23;;;15.60;29.00;;;;;;4988754;28;20437;-69
2022/06/21 03:47:48;;;;;;;27.03;3.13;;;15.60;28.80;;;;;;4987662;28;20484;-67
2022/06/21 03:50:20;;;;;;;27.07;3.80;;;15.70;28.30;;;;;;4988995;28;20445;-67
2022/06/21 03:52:55;;;;;;;26.37;3.60;;;15.80;28.10;;;;;;4989397;28;20457;-69
2022/06/21 03:55:37;;;;;;;26.80;4.00;;;15.80;27.90;;;;;;4990038;28;20833;-67
2022/06/21 03:58:07;;;;;;;27.43;3.47;;;15.70;27.90;;;;;;4987819;28;20488;-66
2022/06/21 04:00:43;;;;;;;24.00;3.80;;;15.90;28.00;;;;;;4988096;28;21003;-70
2022/06/21 04:03:16;;;;;;;33.90;3.70;;;15.90;27.50;;;;;;4988780;28;20445;-68
2022/06/21 04:05:49;;;;;;;28.40;3.90;;;16.10;27.10;;;;;;4988821;28;20461;-69
2022/06/21 04:08:23;;;;;;;25.97;3.87;;;16.20;26.60;;;;;;4987841;28;20481;-66
2022/06/21 04:10:56;;;;;;;26.13;3.17;;;16.30;26.20;;;;;;4969772;28;20473;-67
2022/06/21 04:13:31;;;;;;;25.80;3.40;;;16.40;25.70;;;;;;4970057;28;20468;-69
2022/06/21 04:16:05;;;;;;;25.93;3.20;;;16.50;25.40;;;;;;4968245;28;20469;-66
2022/06/21 04:18:38;;;;;;;26.87;3.40;;;16.60;25.30;;;;;;4969203;28;20507;-69
2022/06/21 04:21:09;;;;;;;31.33;3.43;;;16.70;25.10;;;;;;4988268;28;20464;-67
2022/06/21 04:23:45;;;;;;;32.40;4.20;;;16.80;24.90;;;;;;4989448;28;20460;-66
2022/06/21 04:26:59;;;;;;;27.40;3.60;;;16.90;24.70;;;;;;4988702;28;20991;-66
2022/06/21 04:29:32;;;;;;;27.73;3.27;;;17.00;24.30;;;;;;4987261;28;20969;-68
2022/06/21 04:32:03;;;;;;;28.47;3.93;;;17.10;23.40;;;;;;4987885;28;21050;-66
2022/06/21 04:34:33;;;;;;;30.10;3.00;;;17.40;23.60;;;;;;4988770;28;21019;-67
2022/06/21 04:37:06;;;;;;;30.93;3.20;;;18.10;22.50;;;;;;4989688;28;20465;-69
2022/06/21 04:39:39;;;;;;;28.30;3.47;;;19.00;20.60;;;;;;4986467;28;20989;-66
2022/06/21 04:43:02;;;;;;;29.00;3.30;;;19.40;18.50;;;;;;4989248;28;20463;-67
2022/06/21 04:45:34;;;;;;;32.53;3.53;;;19.90;17.60;;;;;;4988146;28;20453;-68
2022/06/21 04:48:19;;;;;;;28.53;2.80;;;20.40;16.80;;;;;;4988615;28;20854;-67
2022/06/21 04:50:50;;;;;;;29.80;3.23;;;20.90;15.70;;;;;;4986995;28;20471;-69
2022/06/21 04:53:23;;;;;;;30.47;2.97;;;21.20;14.40;;;;;;4988861;28;20449;-69
2022/06/21 04:56:01;;;;;;;29.10;2.90;;;21.30;13.80;;;;;;4988607;28;20481;-68
2022/06/21 04:58:29;;;;;;;29.47;2.73;;;21.10;13.80;;;;;;4989377;28;20480;-69
2022/06/21 05:00:56;;;;;;;28.97;2.60;;;20.80;14.00;;;;;;4986723;28;20481;-67
2022/06/21 05:03:33;;;;;;;29.00;2.73;;;20.80;14.40;;;;;;4988542;28;20461;-69
2022/06/21 05:09:24;;;;;;;27.97;2.80;;;21.20;13.80;;;;;;4988593;28;20432;-68
2022/06/21 05:12:00;;;;;;;29.77;2.90;;;21.90;13.00;;;;;;4987874;28;20957;-68
2022/06/21 05:14:30;;;;;;;31.60;3.47;;;22.60;11.60;;;;;;4988459;28;20624;-69
2022/06/21 05:16:56;;;;;;;28.17;2.80;;;22.90;10.50;;;;;;4988572;28;20467;-69
2022/06/21 05:22:49;;;;;;;28.10;2.63;;;24.30;8.20;;;;;;4987099;28;20452;-68
2022/06/21 05:25:21;;;;;;;28.97;3.13;;;24.80;7.60;;;;;;4987990;28;20472;-69
2022/06/21 05:27:55;;;;;;;28.30;3.30;;;25.20;7.70;;;;;;4988741;28;20483;-68
2022/06/21 05:30:28;;;;;;;28.50;2.53;;;25.70;6.50;;;;;;4991816;28;20453;-68
2022/06/21 05:32:57;;;;;;;27.67;1.93;;;26.00;5.40;;;;;;4991472;28;20467;-69
2022/06/21 05:35:28;;;;;;;27.80;2.53;;;26.20;4.60;;;;;;4991789;28;20495;-68
2022/06/21 05:37:59;;;;;;;29.70;2.90;;;26.00;4.90;;;;;;4991442;28;20489;-68
2022/06/21 05:40:33;;;;;;;28.43;2.47;;;25.80;4.80;;;;;;4992006;28;20451;-69
2022/06/21 05:43:02;;;;;;;28.10;2.73;;;25.60;5.10;;;;;;4991204;28;20464;-68
2022/06/21 05:45:34;;;;;;;27.80;2.70;;;25.60;5.60;;;;;;4991697;28;20460;-68
2022/06/21 05:48:04;;;;;;;28.30;2.77;;;25.80;5.00;;;;;;4991450;28;20491;-68
2022/06/21 05:50:35;;;;;;;27.90;2.87;;;26.00;5.10;;;;;;4992009;28;20462;-69
2022/06/21 05:53:12;;;;;;;27.70;2.33;;;26.30;4.50;;;;;;4990331;28;20460;-69
2022/06/21 05:55:44;;;;;;;26.90;2.47;;;26.20;3.30;;;;;;4991518;28;20488;-69
2022/06/21 05:58:21;;;;;;;29.20;2.27;;;26.20;3.40;;;;;;4991086;28;21083;-67
2022/06/21 06:00:52;;;;;;;27.00;2.20;;;26.50;3.20;;;;;;4991174;28;20989;-68
2022/06/21 06:03:24;;;;;;;26.90;2.20;;;26.80;2.60;;;;;;4989910;28;20465;-69
2022/06/21 06:05:54;;;;;;;28.00;2.40;;;26.90;2.20;;;;;;4991707;28;20460;-68
2022/06/21 06:08:28;;;;;;;27.93;2.43;;;26.90;1.10;;;;;;4991233;28;20480;-68
2022/06/21 06:10:56;;;;;;;27.40;2.27;;;26.70;1.30;;;;;;4991535;28;20468;-68
2022/06/21 06:13:28;;;;;;;27.17;2.03;;;26.60;1.50;;;;;;4990204;28;20460;-68
2022/06/21 06:15:58;;;;;;;26.20;1.73;;;26.80;2.00;;;;;;4991693;28;20859;-68
2022/06/21 06:18:29;;;;;;;28.37;2.20;;;27.70;1.70;;;;;;4990816;28;20969;-70
2022/06/21 06:21:00;;;;;;;26.90;1.80;;;28.70;1.00;;;;;;4991061;28;20467;-68
2022/06/21 06:23:35;;;;;;;26.80;2.27;;;29.90;1.00;;;;;;4990003;28;20468;-70
2022/06/21 06:26:05;;;;;;;26.60;2.00;;;31.40;1.00;;;;;;4991271;28;20466;-69
2022/06/21 06:28:39;;;;;;;26.63;1.83;;;32.60;1.00;;;;;;4991707;28;20491;-68
2022/06/21 06:31:14;;;;;;;26.60;2.00;;;33.40;1.00;;;;;;4990711;28;20495;-69
2022/06/21 06:33:44;;;;;;;25.57;1.63;;;34.30;1.00;;;;;;4991323;28;20460;-68
2022/06/21 06:36:15;;;;;;;25.30;2.00;;;35.20;1.00;;;;;;4991007;28;20477;-68
2022/06/21 06:38:42;;;;;;;26.63;2.10;;;36.10;1.00;;;;;;4990240;28;20492;-69
2022/06/21 06:41:14;;;;;;;24.73;1.60;;;36.80;1.00;;;;;;4990364;28;20461;-69
2022/06/21 06:43:47;;;;;;;25.07;1.93;;;37.00;1.00;;;;;;4989325;28;21201;-69
2022/06/21 06:46:21;;;;;;;26.63;1.60;;;36.60;1.00;;;;;;4990786;28;20448;-69
2022/06/21 06:48:48;;;;;;;24.87;2.07;;;35.70;1.00;;;;;;4990966;28;20481;-69
2022/06/21 06:51:41;;;;;;;27.13;2.27;;;34.30;1.00;;;;;;4990513;28;20472;-69
2022/06/21 06:54:15;;;;;;;27.00;2.10;;;33.20;1.00;;;;;;4976701;28;20536;-67
2022/06/21 06:57:13;;;;;;;26.70;1.80;;;32.80;1.00;;;;;;4990164;28;20479;-69
2022/06/21 06:59:44;;;;;;;25.63;1.53;;;33.60;1.00;;;;;;4989679;28;20887;-67
2022/06/21 07:02:22;;;;;;;26.27;1.80;;;34.00;1.00;;;;;;4989711;28;20473;-69
2022/06/21 07:05:10;;;;;;;26.10;2.03;;;33.40;1.00;;;;;;4989015;28;20467;-67
2022/06/21 07:07:45;;;;;;;26.70;2.00;;;32.00;1.00;;;;;;4990033;28;20826;-69
2022/06/21 07:10:17;;;;;;;26.63;2.00;;;30.80;1.00;;;;;;4990955;28;20460;-68
2022/06/21 07:12:44;;;;;;;28.27;1.70;;;30.00;1.00;;;;;;4990658;28;20790;-68
2022/06/21 07:15:13;;;;;;;27.37;2.30;;;29.70;1.00;;;;;;4988583;28;20575;-68
2022/06/21 07:17:43;;;;;;;27.47;2.57;;;29.30;1.00;;;;;;4990583;28;20925;-68
2022/06/21 07:20:15;;;;;;;28.10;2.33;;;28.40;1.00;;;;;;4990439;28;20456;-68
2022/06/21 07:22:43;;;;;;;29.90;2.90;;;27.80;1.00;;;;;;4990110;28;20991;-68
2022/06/21 07:25:18;;;;;;;28.17;2.40;;;27.30;1.00;;;;;;4989047;28;20475;-69
2022/06/21 07:27:49;;;;;;;28.00;2.63;;;26.80;1.00;;;;;;4988557;28;20813;-68
2022/06/21 07:30:18;;;;;;;32.23;3.10;;;26.10;1.20;;;;;;4987727;28;20471;-69
2022/06/21 07:32:49;;;;;;;29.10;2.83;;;25.60;2.00;;;;;;4988332;28;20969;-69
2022/06/21 07:35:19;;;;;;;28.13;3.17;;;25.00;3.50;;;;;;4989902;28;20445;-68
2022/06/21 07:38:01;;;;;;;28.87;2.53;;;24.60;4.60;;;;;;4989570;28;20492;-69
2022/06/21 07:40:33;;;;;;;28.17;2.70;;;24.40;4.80;;;;;;4967644;28;20833;-69
2022/06/21 07:43:07;;;;;;;29.83;3.10;;;24.30;5.80;;;;;;4969318;28;20466;-70
2022/06/21 07:45:41;;;;;;;30.03;2.93;;;24.10;5.50;;;;;;4970850;28;20456;-68
2022/06/21 07:48:14;;;;;;;29.67;3.70;;;23.80;6.00;;;;;;4969360;28;20489;-68
2022/06/21 07:50:45;;;;;;;28.00;3.00;;;23.60;6.60;;;;;;4985409;28;20483;-68
2022/06/21 07:53:17;;;;;;;28.40;3.53;;;23.40;6.70;;;;;;4988027;28;20468;-68
2022/06/21 07:55:49;;;;;;;28.97;3.93;;;23.30;7.50;;;;;;4983612;28;20543;-68
2022/06/21 07:58:31;;;;;;;30.07;4.00;;;23.20;7.50;;;;;;4983341;28;20496;-68
2022/06/21 08:06:42;;;;;;;33.13;3.70;;;23.70;7.70;;;;;;4989019;28;20479;-67
2022/06/21 08:09:22;;;;;;;30.43;4.00;;;23.90;7.70;;;;;;4988852;28;20967;-67
2022/06/21 08:11:51;;;;;;;30.83;3.60;;;24.10;8.00;;;;;;4969435;28;20840;-68
2022/06/21 08:14:18;;;;;;;29.70;3.17;;;24.10;7.70;;;;;;4969530;28;20501;-68
2022/06/21 08:16:50;;;;;;;28.50;3.43;;;24.00;7.40;;;;;;4969389;28;20485;-68
2022/06/21 08:19:24;;;;;;;29.73;3.97;;;23.90;8.00;;;;;;4969739;28;20449;-67
2022/06/21 08:21:57;;;;;;;28.40;3.43;;;24.10;8.50;;;;;;4986577;28;20487;-68
2022/06/21 08:24:34;;;;;;;28.13;3.90;;;24.20;8.10;;;;;;4988343;28;20465;-68
2022/06/21 08:27:09;;;;;;;29.23;3.63;;;24.40;8.10;;;;;;4989017;28;20437;-68
2022/06/21 08:29:43;;;;;;;29.67;4.03;;;24.60;7.70;;;;;;4989743;28;20461;-68
2022/06/21 08:32:17;;;;;;;29.43;3.70;;;24.90;7.80;;;;;;4987742;28;20472;-68
2022/06/21 08:34:48;;;;;;;29.43;4.07;;;25.30;7.00;;;;;;4982986;28;20469;-68
2022/06/21 08:37:19;;;;;;;29.47;3.50;;;25.70;6.20;;;;;;4977229;28;20524;-70
2022/06/21 08:39:52;;;;;;;29.30;3.50;;;26.80;5.20;;;;;;4989167;28;20468;-69
2022/06/21 08:42:43;;;;;;;28.43;3.30;;;27.40;3.90;;;;;;4984226;28;20453;-69
2022/06/21 08:45:46;;;;;;;29.10;3.80;;;27.60;3.50;;;;;;4941303;28;20468;-68
2022/06/21 08:49:05;;;;;;;28.57;3.70;;;27.40;3.00;;;;;;4989094;28;20476;-68
2022/06/21 08:52:11;;;;;;;29.10;3.53;;;27.00;4.00;;;;;;4986916;28;20556;-68
2022/06/21 08:54:50;;;;;;;28.33;3.67;;;26.50;4.60;;;;;;4989519;28;20463;-68
2022/06/21 08:57:22;;;;;;;28.10;4.30;;;26.50;5.30;;;;;;4986245;28;20493;-68
2022/06/21 09:00:02;;;;;;;31.27;5.00;;;27.00;5.40;;;;;;4985882;28;20473;-68
2022/06/21 09:02:40;;;;;;;27.40;3.83;;;28.50;5.50;;;;;;4982890;28;20508;-68
2022/06/21 09:05:18;;;;;;;28.30;4.00;;;31.70;1.00;;;;;;4995483;28;20468;-68
2022/06/21 09:08:07;;;;;;;27.20;3.73;;;32.00;1.00;;;;;;4992260;28;20601;-69
2022/06/21 09:10:48;;;;;;;27.30;3.77;;;31.40;1.00;;;;;;4993961;28;20575;-70
2022/06/21 09:13:51;;;;;;;27.80;4.17;;;30.80;1.00;;;;;;4989407;28;20495;-69
2022/06/21 09:16:22;;;;;;;27.80;4.50;;;29.90;1.00;;;;;;4993061;28;20491;-69
2022/06/21 09:19:05;;;;;;;29.00;5.87;;;29.40;2.50;;;;;;4989135;28;20485;-69
2022/06/21 09:21:45;;;;;;;30.50;5.70;;;29.20;3.00;;;;;;4993823;28;21153;-69
2022/06/21 09:24:28;;;;;;;31.03;5.97;;;28.80;3.70;;;;;;4991528;28;20582;-68
2022/06/21 09:27:02;;;;;;;29.60;5.23;;;28.40;4.90;;;;;;4995640;28;20815;-69
2022/06/21 09:29:34;;;;;;;29.80;5.80;;;28.30;5.10;;;;;;4989732;28;20465;-67
2022/06/21 09:32:27;;;;;;;32.10;6.10;;;28.40;5.20;;;;;;4981255;28;20489;-67
2022/06/21 09:35:02;;;;;;;33.23;6.63;;;28.20;6.00;;;;;;4981629;28;20468;-69
2022/06/21 09:37:41;;;;;;;29.13;6.10;;;28.00;6.70;;;;;;4993943;28;20492;-68
2022/06/21 09:40:17;;;;;;;29.23;6.00;;;27.70;6.40;;;;;;4995116;28;20502;-69
2022/06/21 09:42:52;;;;;;;31.57;7.60;;;27.50;7.40;;;;;;4989484;28;20467;-68
2022/06/21 09:45:31;;;;;;;30.00;6.57;;;27.30;9.00;;;;;;4991352;28;20440;-68
2022/06/21 09:48:06;;;;;;;31.33;7.43;;;27.10;8.70;;;;;;4994770;28;20480;-70
2022/06/21 09:50:44;;;;;;;30.77;7.00;;;26.80;8.70;;;;;;4986740;28;20468;-70
2022/06/21 09:53:19;;;;;;;30.50;7.50;;;26.60;9.30;;;;;;4978783;28;20549;-69
2022/06/21 09:55:56;;;;;;;36.00;7.80;;;26.40;9.30;;;;;;4991000;28;20448;-67
2022/06/21 09:58:28;;;;;;;28.83;6.57;;;26.20;9.80;;;;;;4984613;28;20496;-68
2022/06/21 10:01:02;;;;;;;29.20;6.03;;;26.10;10.50;;;;;;4988011;28;20480;-68
2022/06/21 10:03:42;;;;;;;31.73;6.27;;;26.10;11.30;;;;;;4985241;28;20448;-69
2022/06/21 10:06:15;;;;;;;29.63;7.20;;;26.10;11.40;;;;;;4990103;28;20885;-68
2022/06/21 10:08:58;;;;;;;31.37;6.97;;;26.30;10.80;;;;;;4988380;28;20484;-68
2022/06/21 10:11:35;;;;;;;31.93;6.03;;;26.40;10.50;;;;;;4976827;28;20456;-68
2022/06/21 10:14:21;;;;;;;28.40;5.67;;;26.60;10.00;;;;;;4988757;28;20940;-69
2022/06/21 10:17:03;;;;;;;29.30;5.70;;;26.90;10.00;;;;;;4991917;28;20484;-69
2022/06/21 10:19:41;;;;;;;28.00;5.90;;;26.80;10.00;;;;;;4991203;28;21078;-67
2022/06/21 10:22:30;;;;;;;28.40;5.83;;;26.70;10.00;;;;;;4990011;28;20475;-68
2022/06/21 10:25:22;;;;;;;29.47;5.83;;;26.40;10.40;;;;;;4990833;28;20914;-68
2022/06/21 10:28:16;;;;;;;29.70;6.37;;;26.10;11.40;;;;;;4975919;28;20496;-69
2022/06/21 10:31:23;;;;;;;31.63;6.57;;;25.70;11.90;;;;;;4976652;28;20481;-69
2022/06/21 10:34:19;;;;;;;28.20;5.73;;;25.50;12.50;;;;;;4987795;28;20469;-69
2022/06/21 10:37:02;;;;;;;32.80;6.20;;;25.50;12.80;;;;;;4989664;28;20492;-68
2022/06/21 10:39:53;;;;;;;29.70;6.03;;;25.40;12.90;;;;;;4990808;28;20440;-69
2022/06/21 10:42:47;;;;;;;29.07;6.30;;;25.30;12.90;;;;;;4976269;28;20523;-69
2022/06/21 10:45:36;;;;;;;28.70;6.20;;;25.30;13.60;;;;;;4990781;28;20514;-69
2022/06/21 10:48:48;;;;;;;28.90;6.23;;;25.30;13.30;;;;;;4990901;28;20475;-70
2022/06/21 10:51:26;;;;;;;29.00;7.23;;;25.30;13.80;;;;;;4989344;28;20751;-70
2022/06/21 10:54:17;;;;;;;28.33;6.87;;;25.00;14.60;;;;;;4990821;28;20467;-69
2022/06/21 10:57:13;;;;;;;29.80;7.17;;;25.00;15.60;;;;;;4990807;28;20868;-70
2022/06/21 11:02:51;;;;;;;29.90;6.97;;;25.10;14.50;;;;;;4986574;28;20476;-69
2022/06/21 11:05:25;;;;;;;28.53;6.00;;;25.20;14.40;;;;;;4975697;28;20461;-68
2022/06/21 11:08:01;;;;;;;28.20;6.30;;;25.20;14.90;;;;;;4971217;28;20826;-70
2022/06/21 11:10:35;;;;;;;31.10;6.60;;;25.20;14.70;;;;;;4971389;28;20457;-69
2022/06/21 11:13:06;;;;;;;27.43;5.80;;;25.30;13.90;;;;;;4978984;28;20468;-69
2022/06/21 11:15:49;;;;;;;28.37;6.87;;;25.20;14.20;;;;;;4989479;28;20917;-69
2022/06/21 11:18:30;;;;;;;27.87;6.07;;;25.10;14.20;;;;;;4988415;28;20495;-69
2022/06/21 11:21:09;;;;;;;30.23;6.03;;;25.20;14.70;;;;;;4989177;28;20499;-68
2022/06/21 11:23:48;;;;;;;29.17;6.17;;;25.30;14.30;;;;;;4989275;28;20460;-70
2022/06/21 11:26:24;;;;;;;32.77;6.77;;;25.50;14.00;;;;;;4989494;28;20450;-70
2022/06/21 11:28:57;;;;;;;28.00;6.20;;;25.70;14.00;;;;;;4989872;28;20487;-69
2022/06/21 11:31:34;;;;;;;28.67;5.80;;;26.00;13.90;;;;;;4987819;28;20484;-68
2022/06/21 11:34:09;;;;;;;30.90;7.10;;;26.30;13.40;;;;;;4984326;28;20534;-69
2022/06/21 11:36:45;;;;;;;30.20;7.90;;;26.50;12.60;;;;;;4990740;28;20469;-69
2022/06/21 11:39:24;;;;;;;29.53;6.30;;;26.70;12.20;;;;;;4989557;28;20495;-69
2022/06/21 11:42:09;;;;;;;29.00;6.57;;;26.80;12.30;;;;;;4989580;28;20953;-69
2022/06/21 11:45:06;;;;;;;29.20;6.90;;;26.70;11.90;;;;;;4988704;28;20457;-69
2022/06/21 11:47:51;;;;;;;30.97;6.90;;;26.50;11.80;;;;;;4989674;28;20477;-69
2022/06/21 11:50:23;;;;;;;31.60;7.60;;;26.40;13.00;;;;;;4989745;28;20583;-70
2022/06/21 11:53:26;;;;;;;30.13;6.77;;;26.70;12.80;;;;;;4989366;28;20556;-68
2022/06/21 11:56:00;;;;;;;28.40;6.73;;;26.80;12.20;;;;;;4988289;28;20467;-69
2022/06/21 11:58:34;;;;;;;31.87;7.40;;;26.80;12.20;;;;;;4989933;28;20864;-68
2022/06/21 12:01:12;;;;;;;28.00;6.33;;;26.70;12.00;;;;;;4987693;28;20476;-69
2022/06/21 12:03:51;;;;;;;29.40;6.87;;;26.70;12.50;;;;;;4985115;28;20472;-69
2022/06/21 12:06:29;;;;;;;29.90;7.40;;;26.80;12.30;;;;;;4987697;28;20457;-69
2022/06/21 12:09:02;;;;;;;30.33;7.53;;;26.70;12.40;;;;;;4989385;28;21001;-69
2022/06/21 12:11:37;;;;;;;29.97;7.20;;;26.80;12.30;;;;;;4988839;28;20941;-69
2022/06/21 12:14:15;;;;;;;29.17;7.80;;;26.70;12.60;;;;;;4988991;28;20464;-69
2022/06/21 12:16:48;;;;;;;29.03;6.87;;;26.60;12.90;;;;;;4987649;28;20467;-68
2022/06/21 12:19:20;;;;;;;28.67;7.40;;;26.50;13.00;;;;;;4988899;28;20933;-69
2022/06/21 12:21:56;;;;;;;29.13;7.70;;;26.50;12.90;;;;;;4989242;28;20493;-68
2022/06/21 12:24:25;;;;;;;34.20;8.17;;;26.50;13.20;;;;;;4988903;28;20464;-69
2022/06/21 12:26:54;;;;;;;29.60;7.90;;;26.30;13.30;;;;;;4976641;28;20466;-70
2022/06/21 12:29:23;;;;;;;30.23;7.63;;;26.30;13.50;;;;;;4969343;28;20556;-69
2022/06/21 12:31:52;;;;;;;29.03;7.93;;;26.20;13.60;;;;;;4969320;28;20477;-68
2022/06/21 12:34:29;;;;;;;28.13;7.40;;;26.20;13.80;;;;;;4969668;28;20497;-69
2022/06/21 12:37:01;;;;;;;29.83;8.10;;;26.10;14.30;;;;;;4979139;28;20832;-69
2022/06/21 12:39:33;;;;;;;29.80;6.20;;;26.10;13.80;;;;;;4988572;28;20446;-69
2022/06/21 12:42:14;;;;;;;28.47;7.47;;;26.20;14.10;;;;;;4982765;28;20470;-69
2022/06/21 12:44:54;;;;;;;30.47;7.43;;;26.30;13.80;;;;;;4985313;28;20456;-69
2022/06/21 12:47:32;;;;;;;27.60;6.40;;;26.30;14.10;;;;;;4986456;28;20500;-69
2022/06/21 12:50:37;;;;;;;30.13;6.90;;;26.30;14.20;;;;;;4988528;28;21073;-69
2022/06/21 12:53:23;;;;;;;28.27;6.80;;;26.30;14.20;;;;;;4988331;28;20471;-69
2022/06/21 12:55:59;;;;;;;29.50;7.40;;;26.20;14.50;;;;;;4988136;28;20468;-69
2022/06/21 12:58:38;;;;;;;29.90;7.60;;;26.10;14.80;;;;;;4987571;28;20492;-69
2022/06/21 13:01:13;;;;;;;31.50;8.87;;;26.00;14.90;;;;;;4987792;28;21001;-69
2022/06/21 13:04:14;;;;;;;28.97;8.17;;;25.90;14.60;;;;;;4989082;28;20476;-69
2022/06/21 13:06:55;;;;;;;30.60;7.70;;;25.90;14.60;;;;;;4987549;28;20448;-68
2022/06/21 13:09:55;;;;;;;28.40;7.27;;;25.90;14.80;;;;;;4988749;28;20464;-70
2022/06/21 13:12:45;;;;;;;30.07;8.17;;;25.80;15.20;;;;;;4987264;28;20835;-69
2022/06/21 13:15:36;;;;;;;33.40;8.07;;;25.80;15.50;;;;;;4988145;28;20471;-69
2022/06/21 13:18:37;;;;;;;29.17;7.47;;;25.80;15.20;;;;;;4986817;28;20571;-68
2022/06/21 13:21:14;;;;;;;28.73;8.07;;;25.80;15.70;;;;;;4987841;28;20448;-69
2022/06/21 13:23:53;;;;;;;28.50;7.60;;;25.70;16.00;;;;;;4988126;28;20465;-70
2022/06/21 13:26:44;;;;;;;30.30;8.57;;;25.60;16.40;;;;;;4988406;28;20457;-69
2022/06/21 13:29:21;;;;;;;28.00;7.30;;;25.60;16.90;;;;;;4986557;28;20483;-69
2022/06/21 13:31:53;;;;;;;29.57;6.70;;;25.70;16.40;;;;;;4987641;28;20481;-69
2022/06/21 13:34:37;;;;;;;26.83;7.13;;;25.90;16.50;;;;;;4988337;28;20551;-68
2022/06/21 13:37:12;;;;;;;28.07;7.37;;;26.00;16.90;;;;;;4988011;28;20460;-70
2022/06/21 13:39:47;;;;;;;28.87;7.53;;;26.10;16.40;;;;;;4986794;28;20468;-69
2022/06/21 13:42:39;;;;;;;29.00;6.80;;;26.10;15.70;;;;;;4987681;28;20975;-68
2022/06/21 13:45:35;;;;;;;27.90;6.93;;;26.10;16.40;;;;;;4988246;28;20461;-69